createdAt,value
2022-12-13T00:01:46.384Z,0.20
2022-12-13T00:04:13.755Z,0.11
2022-12-13T00:06:40.321Z,0.23
2022-12-13T00:09:07.967Z,0.24
2022-12-13T00:11:34.744Z,0.23
2022-12-13T00:14:01.896Z,0.19
2022-12-13T00:16:28.493Z,0.26
2022-12-13T00:18:58.569Z,0.26
2022-12-13T00:21:28.985Z,0.33
2022-12-13T00:23:56.078Z,0.30
2022-12-13T00:26:25.938Z,0.25
2022-12-13T00:28:54.152Z,0.24
2022-12-13T00:34:10.009Z,0.18
2022-12-13T00:36:36.408Z,0.16
2022-12-13T00:39:02.979Z,0.13
2022-12-13T00:41:32.878Z,0.08
2022-12-13T00:44:00.046Z,0.07
2022-12-13T00:46:27.631Z,0.17
2022-12-13T00:48:59.806Z,0.24
2022-12-13T00:51:27.939Z,0.24
2022-12-13T00:53:54.767Z,0.16
2022-12-13T00:56:23.509Z,0.12
2022-12-13T00:58:52.367Z,0.10
2022-12-13T01:01:22.331Z,0.11
2022-12-13T01:03:48.745Z,0.08
2022-12-13T01:06:19.368Z,0.08
2022-12-13T01:08:46.582Z,0.08
2022-12-13T01:11:14.394Z,0.09
2022-12-13T01:13:41.356Z,0.07
2022-12-13T01:16:09.955Z,0.06
2022-12-13T01:18:36.995Z,0.06
2022-12-13T01:21:07.077Z,0.00
2022-12-13T01:23:34.323Z,0.12
2022-12-13T01:26:09.539Z,0.10
2022-12-13T01:28:36.321Z,0.07
2022-12-13T01:31:13.048Z,0.06
2022-12-13T01:33:40.442Z,0.03
2022-12-13T01:36:09.806Z,0.08
2022-12-13T01:38:38.104Z,0.00
2022-12-13T01:41:16.984Z,0.01
2022-12-13T01:43:44.693Z,0.02
2022-12-13T01:46:12.558Z,0.06
2022-12-13T01:49:02.334Z,0.02
2022-12-13T01:51:38.789Z,0.05
2022-12-13T01:54:09.295Z,0.08
2022-12-13T01:56:43.513Z,0.13
2022-12-13T01:59:11.581Z,0.30
2022-12-13T02:01:39.599Z,0.40
2022-12-13T02:04:07.399Z,0.31
2022-12-13T02:06:41.748Z,0.35
2022-12-13T02:09:09.014Z,0.31
2022-12-13T02:11:38.885Z,0.25
2022-12-13T02:14:05.599Z,0.24
2022-12-13T02:16:56.715Z,0.28
2022-12-13T02:19:46.382Z,0.31
2022-12-13T02:22:25.756Z,0.37
2022-12-13T02:25:16.497Z,0.42
2022-12-13T02:28:31.186Z,0.41
2022-12-13T02:30:57.031Z,0.48
2022-12-13T02:33:37.822Z,0.57
2022-12-13T02:36:26.133Z,0.48
2022-12-13T02:39:05.573Z,0.49
2022-12-13T02:41:37.708Z,0.47
2022-12-13T02:44:22.295Z,0.49
2022-12-13T02:46:56.707Z,0.46
2022-12-13T02:49:25.702Z,0.48
2022-12-13T02:51:52.855Z,0.44
2022-12-13T02:54:19.311Z,0.40
2022-12-13T02:56:59.796Z,0.46
2022-12-13T02:59:33.555Z,0.47
2022-12-13T03:02:32.284Z,0.61
2022-12-13T03:05:28.259Z,0.66
2022-12-13T03:08:20.824Z,0.67
2022-12-13T03:11:10.654Z,0.72
2022-12-13T03:13:47.129Z,0.78
2022-12-13T03:16:15.585Z,0.74
2022-12-13T03:18:52.178Z,0.62
2022-12-13T03:21:18.736Z,0.71
2022-12-13T03:23:47.012Z,0.71
2022-12-13T03:26:31.690Z,0.74
2022-12-13T03:28:58.143Z,0.69
2022-12-13T03:31:24.609Z,0.55
2022-12-13T03:33:51.091Z,0.65
2022-12-13T03:36:18.903Z,0.80
2022-12-13T03:38:47.695Z,0.76
2022-12-13T03:41:18.667Z,0.80
2022-12-13T03:43:45.282Z,0.81
2022-12-13T03:46:11.913Z,0.82
2022-12-13T03:48:38.661Z,0.88
2022-12-13T03:51:05.344Z,0.76
2022-12-13T03:53:33.275Z,0.66
2022-12-13T03:56:05.889Z,0.76
2022-12-13T03:58:36.033Z,0.85
2022-12-13T04:01:09.137Z,0.89
2022-12-13T04:03:37.431Z,0.89
2022-12-13T04:06:04.774Z,0.91
2022-12-13T04:08:31.448Z,0.93
2022-12-13T04:10:57.925Z,0.93
2022-12-13T04:13:33.281Z,0.90
2022-12-13T04:16:01.099Z,0.91
2022-12-13T04:18:27.823Z,0.93
2022-12-13T04:20:54.233Z,0.81
2022-12-13T04:23:20.658Z,0.78
2022-12-13T04:25:47.184Z,0.89
2022-12-13T04:28:22.291Z,0.90
2022-12-13T04:30:52.974Z,0.90
2022-12-13T04:33:24.076Z,0.83
2022-12-13T04:35:51.086Z,0.84
2022-12-13T04:38:17.823Z,0.93
2022-12-13T04:40:44.222Z,0.99
2022-12-13T04:43:10.854Z,0.97
2022-12-13T04:45:37.403Z,0.95
2022-12-13T04:48:04.182Z,0.91
2022-12-13T04:50:30.608Z,0.90
2022-12-13T04:52:57.071Z,0.99
2022-12-13T04:55:23.471Z,1.01
2022-12-13T04:57:49.887Z,0.94
2022-12-13T05:00:16.912Z,0.91
2022-12-13T05:02:43.447Z,0.91
2022-12-13T05:05:10.252Z,0.90
2022-12-13T05:07:42.800Z,0.94
2022-12-13T05:10:11.081Z,0.95
2022-12-13T05:12:37.571Z,0.98
2022-12-13T05:15:04.554Z,0.94
2022-12-13T05:17:36.893Z,1.01
2022-12-13T05:20:03.879Z,1.07
2022-12-13T05:22:30.329Z,1.01
2022-12-13T05:24:56.713Z,1.01
2022-12-13T05:27:24.723Z,1.02
2022-12-13T05:29:56.304Z,1.04
2022-12-13T05:32:42.536Z,1.02
2022-12-13T05:35:13.272Z,0.99
2022-12-13T05:37:40.039Z,1.01
2022-12-13T05:40:07.198Z,1.04
2022-12-13T05:42:33.700Z,1.05
2022-12-13T05:45:00.291Z,1.02
2022-12-13T05:47:26.695Z,0.99
2022-12-13T05:49:53.091Z,1.01
2022-12-13T05:52:21.665Z,0.98
2022-12-13T05:55:01.246Z,1.00
2022-12-13T05:57:28.157Z,1.01
2022-12-13T05:59:54.537Z,1.03
2022-12-13T06:02:22.032Z,1.06
2022-12-13T06:04:48.765Z,1.11
2022-12-13T06:07:15.224Z,1.09
2022-12-13T06:09:42.201Z,1.12
2022-12-13T06:12:30.984Z,1.13
2022-12-13T06:15:00.789Z,1.13
2022-12-13T06:17:35.579Z,1.14
2022-12-13T06:20:03.315Z,1.10
2022-12-13T06:22:49.734Z,1.11
2022-12-13T06:25:31.323Z,1.10
2022-12-13T06:28:01.155Z,1.12
2022-12-13T06:30:28.891Z,1.11
2022-12-13T06:32:55.868Z,1.11
2022-12-13T06:35:27.965Z,1.06
2022-12-13T06:38:01.499Z,1.10
2022-12-13T06:40:32.065Z,1.06
2022-12-13T06:42:58.457Z,1.09
2022-12-13T06:45:25.571Z,1.10
2022-12-13T06:47:51.967Z,1.08
2022-12-13T06:50:18.397Z,1.10
2022-12-13T06:52:46.600Z,1.12
2022-12-13T06:55:13.545Z,1.13
2022-12-13T06:57:40.593Z,1.14
2022-12-13T07:00:08.319Z,1.16
2022-12-13T07:02:34.979Z,1.12
2022-12-13T07:05:01.639Z,1.19
2022-12-13T07:07:29.728Z,1.19
2022-12-13T07:09:56.258Z,1.20
2022-12-13T07:12:23.472Z,1.23
2022-12-13T07:14:50.439Z,1.26
2022-12-13T07:17:33.544Z,1.25
2022-12-13T07:20:07.940Z,1.19
2022-12-13T07:22:37.835Z,1.20
2022-12-13T07:25:27.427Z,1.16
2022-12-13T07:28:06.116Z,1.15
2022-12-13T07:30:41.199Z,1.18
2022-12-13T07:33:09.387Z,1.20
2022-12-13T07:35:37.346Z,1.17
2022-12-13T07:38:04.604Z,1.21
2022-12-13T07:40:33.691Z,1.24
2022-12-13T07:43:00.182Z,1.27
2022-12-13T07:45:27.008Z,1.33
2022-12-13T07:47:53.527Z,1.34
2022-12-13T07:50:25.158Z,1.35
2022-12-13T07:52:53.375Z,1.32
2022-12-13T07:55:32.930Z,1.27
2022-12-13T07:58:08.059Z,1.35
2022-12-13T08:00:34.517Z,1.35
2022-12-13T08:03:01.498Z,1.35
2022-12-13T08:05:28.548Z,1.34
2022-12-13T08:07:55.118Z,1.37
2022-12-13T08:10:22.063Z,1.40
2022-12-13T08:12:49.991Z,1.39
2022-12-13T08:15:17.489Z,1.35
2022-12-13T08:17:43.891Z,1.29
2022-12-13T08:20:10.651Z,1.32
2022-12-13T08:22:37.148Z,1.29
2022-12-13T08:25:04.364Z,1.25
2022-12-13T08:27:30.779Z,1.24
2022-12-13T08:30:22.853Z,1.29
2022-12-13T08:32:50.858Z,1.33
2022-12-13T08:35:22.326Z,1.29
2022-12-13T08:37:48.856Z,1.28
2022-12-13T08:40:15.248Z,1.29
2022-12-13T08:42:41.652Z,1.32
2022-12-13T08:45:08.728Z,1.28
2022-12-13T08:47:41.302Z,1.30
2022-12-13T08:50:08.436Z,1.33
2022-12-13T08:52:40.257Z,1.29
2022-12-13T08:55:14.579Z,1.30
2022-12-13T08:57:42.463Z,1.34
2022-12-13T09:00:16.327Z,1.33
2022-12-13T09:02:43.175Z,1.27
2022-12-13T09:05:12.460Z,1.35
2022-12-13T09:07:42.955Z,1.40
2022-12-13T09:10:26.607Z,1.51
2022-12-13T09:13:01.938Z,1.68
2022-12-13T09:15:34.552Z,1.58
2022-12-13T09:18:05.149Z,1.43
2022-12-13T09:20:40.516Z,1.44
2022-12-13T09:23:22.871Z,1.44
2022-12-13T09:25:55.777Z,1.52
2022-12-13T09:28:22.979Z,1.52
2022-12-13T09:30:49.853Z,1.48
2022-12-13T09:33:17.689Z,1.49
2022-12-13T09:35:55.677Z,1.53
2022-12-13T09:38:22.110Z,1.56
2022-12-13T09:40:58.367Z,1.55
2022-12-13T09:43:32.515Z,1.47
2022-12-13T09:46:13.349Z,1.42
2022-12-13T09:48:52.323Z,1.43
2022-12-13T09:51:28.796Z,1.43
2022-12-13T09:54:05.303Z,1.48
2022-12-13T09:56:33.008Z,1.54
2022-12-13T09:58:59.458Z,1.55
2022-12-13T10:01:26.041Z,1.67
2022-12-13T10:03:55.807Z,1.86
2022-12-13T10:06:24.272Z,1.81
2022-12-13T10:08:58.473Z,1.75
2022-12-13T10:11:31.723Z,1.69
2022-12-13T10:14:17.056Z,1.59
2022-12-13T10:16:48.906Z,1.63
2022-12-13T10:19:29.251Z,1.66
2022-12-13T10:22:01.503Z,1.64
2022-12-13T10:24:47.585Z,1.72
2022-12-13T10:27:17.908Z,1.78
2022-12-13T10:30:15.456Z,1.82
2022-12-13T10:32:48.031Z,1.77
2022-12-13T10:35:35.259Z,1.80
2022-12-13T10:38:22.412Z,1.76
2022-12-13T10:40:58.266Z,1.80
2022-12-13T10:43:28.083Z,1.77
2022-12-13T10:45:59.528Z,1.77
2022-12-13T10:48:31.886Z,1.76
2022-12-13T10:51:09.356Z,1.82
2022-12-13T10:53:47.538Z,1.82
2022-12-13T10:56:23.223Z,1.84
2022-12-13T10:59:16.928Z,1.84
2022-12-13T11:01:44.662Z,1.91
2022-12-13T11:04:28.373Z,1.93
2022-12-13T11:06:57.495Z,1.98
2022-12-13T11:09:38.309Z,1.96
2022-12-13T11:12:11.812Z,1.95
2022-12-13T11:14:48.557Z,1.87
2022-12-13T11:17:20.827Z,1.79
2022-12-13T11:19:52.265Z,1.92
2022-12-13T11:22:27.014Z,1.96
2022-12-13T11:25:07.864Z,2.09
2022-12-13T11:28:26.864Z,2.14
2022-12-13T11:31:15.875Z,2.10
2022-12-13T11:34:04.409Z,2.03
2022-12-13T11:36:42.206Z,2.08
2022-12-13T11:39:17.787Z,2.14
2022-12-13T11:42:01.228Z,2.19
2022-12-13T11:44:34.389Z,2.22
2022-12-13T11:47:01.926Z,2.21
2022-12-13T11:49:43.794Z,2.12
2022-12-13T11:53:26.584Z,2.17
2022-12-13T11:56:34.020Z,2.16
2022-12-13T11:59:19.118Z,2.11
2022-12-13T12:02:04.983Z,2.16
2022-12-13T12:04:39.972Z,2.20
2022-12-13T12:07:32.490Z,2.24
2022-12-13T12:10:14.024Z,2.26
2022-12-13T12:12:45.803Z,2.19
2022-12-13T12:15:18.815Z,2.19
2022-12-13T12:17:54.900Z,2.14
2022-12-13T12:20:46.068Z,2.21
2022-12-13T12:23:35.485Z,2.35
2022-12-13T12:26:13.800Z,2.43
2022-12-13T12:29:01.401Z,2.46
2022-12-13T12:31:50.665Z,2.40
2022-12-13T12:34:37.258Z,2.34
2022-12-13T12:37:39.928Z,2.31
2022-12-13T12:40:52.165Z,2.26
2022-12-13T12:43:37.733Z,2.30
2022-12-13T12:46:07.350Z,2.33
2022-12-13T12:49:19.366Z,2.35
2022-12-13T12:52:04.574Z,2.33
2022-12-13T12:54:33.915Z,2.39
2022-12-13T12:57:20.845Z,2.41
2022-12-13T12:59:50.045Z,2.42
2022-12-13T13:02:25.791Z,2.41
2022-12-13T13:05:00.451Z,2.40
2022-12-13T13:07:39.799Z,2.37
2022-12-13T13:10:16.729Z,2.40
2022-12-13T13:12:53.329Z,2.31
2022-12-13T13:15:38.593Z,2.24
2022-12-13T13:18:25.420Z,2.24
2022-12-13T13:21:33.546Z,2.19
2022-12-13T13:24:09.048Z,2.20
2022-12-13T13:26:42.709Z,2.29
2022-12-13T13:29:27.068Z,2.39
2022-12-13T13:32:02.267Z,2.33
2022-12-13T13:34:34.945Z,2.30
2022-12-13T13:37:03.676Z,2.30
2022-12-13T13:39:33.808Z,2.30
2022-12-13T13:42:15.137Z,2.31
2022-12-13T13:44:54.198Z,2.30
2022-12-13T13:47:20.713Z,2.26
2022-12-13T13:50:03.686Z,2.24
2022-12-13T13:52:46.027Z,2.21
2022-12-13T13:55:53.020Z,2.14
2022-12-13T13:59:01.314Z,2.10
2022-12-13T14:01:30.739Z,2.15
2022-12-13T14:04:38.026Z,2.17
2022-12-13T14:07:41.712Z,2.19
2022-12-13T14:10:17.342Z,2.09
2022-12-13T14:13:28.215Z,2.08
2022-12-13T14:16:33.749Z,2.13
2022-12-13T14:19:45.838Z,2.15
2022-12-13T14:22:17.875Z,2.16
2022-12-13T14:24:53.376Z,2.14
2022-12-13T14:27:43.052Z,2.09
2022-12-13T14:30:26.952Z,2.08
2022-12-13T14:32:55.484Z,2.13
2022-12-13T14:35:30.433Z,2.14
2022-12-13T14:38:02.891Z,2.08
2022-12-13T14:40:35.349Z,2.11
2022-12-13T14:43:02.330Z,2.08
2022-12-13T14:45:34.968Z,2.07
2022-12-13T14:48:05.782Z,2.09
2022-12-13T14:50:34.896Z,2.10
2022-12-13T14:53:04.947Z,2.07
2022-12-13T14:55:37.245Z,2.08
2022-12-13T14:58:16.927Z,2.12
2022-12-13T15:00:43.660Z,2.14
2022-12-13T15:03:21.769Z,2.03
2022-12-13T15:05:54.330Z,1.85
2022-12-13T15:08:21.527Z,1.95
2022-12-13T15:10:51.423Z,1.98
2022-12-13T15:13:51.196Z,2.04
2022-12-13T15:16:28.920Z,2.04
2022-12-13T15:19:30.894Z,2.04
2022-12-13T15:22:02.695Z,2.00
2022-12-13T15:24:40.625Z,1.90
2022-12-13T15:27:08.442Z,1.86
2022-12-13T15:29:36.974Z,1.92
2022-12-13T15:32:04.109Z,2.00
2022-12-13T15:34:35.203Z,2.04
2022-12-13T15:37:28.145Z,2.00
2022-12-13T15:40:00.627Z,1.96
2022-12-13T15:42:33.643Z,1.96
2022-12-13T15:45:02.906Z,2.00
2022-12-13T15:47:29.637Z,1.96
2022-12-13T15:50:05.497Z,1.99
2022-12-13T15:52:39.919Z,2.00
2022-12-13T15:55:09.206Z,1.94
2022-12-13T15:57:51.880Z,1.97
2022-12-13T16:00:18.620Z,1.92
2022-12-13T16:03:14.937Z,1.85
2022-12-13T16:05:50.381Z,1.86
2022-12-13T16:09:33.052Z,1.91
2022-12-13T16:12:03.525Z,2.02
2022-12-13T16:14:32.949Z,2.01
2022-12-13T16:18:06.493Z,2.02
2022-12-13T16:20:32.983Z,2.02
2022-12-13T16:22:59.937Z,1.97
2022-12-13T16:25:26.709Z,1.96
2022-12-13T16:27:53.125Z,1.87
2022-12-13T16:30:27.755Z,1.92
2022-12-13T16:33:18.002Z,1.93
2022-12-13T16:35:40.895Z,1.97
2022-12-13T16:38:10.948Z,1.91
2022-12-13T16:40:55.739Z,1.83
2022-12-13T16:43:31.234Z,1.78
2022-12-13T16:47:17.184Z,1.82
2022-12-13T16:48:50.300Z,1.77
2022-12-13T16:51:16.736Z,1.76
2022-12-13T16:53:43.742Z,1.82
2022-12-13T16:56:11.445Z,1.93
2022-12-13T16:58:38.049Z,2.00
2022-12-13T17:01:12.117Z,1.94
2022-12-13T17:03:39.104Z,1.88
2022-12-13T17:06:12.522Z,1.92
2022-12-13T17:08:38.943Z,1.99
2022-12-13T17:11:06.864Z,1.88
2022-12-13T17:13:33.380Z,1.87
2022-12-13T17:16:00.113Z,1.83
2022-12-13T17:18:26.582Z,1.84
2022-12-13T17:20:53.825Z,1.89
2022-12-13T17:23:25.904Z,1.92
2022-12-13T17:25:58.087Z,2.01
2022-12-13T17:28:25.606Z,1.99
2022-12-13T17:30:54.874Z,1.97
2022-12-13T17:33:22.052Z,1.94
2022-12-13T17:35:48.615Z,1.94
2022-12-13T17:38:15.000Z,1.86
2022-12-13T17:40:41.670Z,1.80
2022-12-13T17:43:09.476Z,1.84
2022-12-13T17:45:42.728Z,1.85
2022-12-13T17:48:09.173Z,1.86
2022-12-13T17:50:38.092Z,1.91
2022-12-13T17:53:04.588Z,2.06
2022-12-13T17:55:31.998Z,2.11
2022-12-13T17:58:04.147Z,2.03
2022-12-13T18:00:31.092Z,2.04
2022-12-13T18:02:57.828Z,2.07
2022-12-13T18:05:27.096Z,2.05
2022-12-13T18:07:53.528Z,2.05
2022-12-13T18:10:22.544Z,2.06
2022-12-13T18:12:52.822Z,2.12
2022-12-13T18:15:19.316Z,2.13
2022-12-13T18:18:10.847Z,2.13
2022-12-13T18:20:35.619Z,2.03
2022-12-13T18:23:02.065Z,2.03
2022-12-13T18:25:29.513Z,1.99
2022-12-13T18:28:00.640Z,2.09
2022-12-13T18:30:28.069Z,2.08
2022-12-13T18:32:54.488Z,2.01
2022-12-13T18:35:20.886Z,2.04
2022-12-13T18:37:47.287Z,1.99
2022-12-13T18:40:13.700Z,2.03
2022-12-13T18:42:40.216Z,2.07
2022-12-13T18:45:07.053Z,2.04
2022-12-13T18:47:33.478Z,2.01
2022-12-13T18:49:59.891Z,1.99
2022-12-13T18:52:26.283Z,1.96
2022-12-13T18:54:54.493Z,1.96
2022-12-13T18:57:21.694Z,2.03
2022-12-13T18:59:54.601Z,2.04
2022-12-13T19:02:21.808Z,2.03
2022-12-13T19:04:55.018Z,1.99
2022-12-13T19:07:22.239Z,2.02
2022-12-13T19:09:54.430Z,2.00
2022-12-13T19:12:21.964Z,2.04
2022-12-13T19:14:54.565Z,2.07
2022-12-13T19:17:21.699Z,2.07
2022-12-13T19:19:48.355Z,2.07
2022-12-13T19:22:15.857Z,2.15
2022-12-13T19:24:42.402Z,2.20
2022-12-13T19:27:08.849Z,2.21
2022-12-13T19:29:35.323Z,2.18
2022-12-13T19:32:01.888Z,2.19
2022-12-13T19:34:28.296Z,2.11
2022-12-13T19:36:54.794Z,2.06
2022-12-13T19:39:21.231Z,2.09
2022-12-13T19:41:47.892Z,2.13
2022-12-13T19:44:14.323Z,2.10
2022-12-13T19:46:40.867Z,2.12
2022-12-13T19:49:07.371Z,2.14
2022-12-13T19:51:39.282Z,2.20
2022-12-13T19:54:06.731Z,2.19
2022-12-13T19:56:33.183Z,2.18
2022-12-13T19:58:59.720Z,2.20
2022-12-13T20:01:26.215Z,2.20
2022-12-13T20:03:52.752Z,2.19
2022-12-13T20:06:22.091Z,2.14
2022-12-13T20:08:49.307Z,2.09
2022-12-13T20:11:19.920Z,2.09
2022-12-13T20:13:48.579Z,2.11
2022-12-13T20:16:21.179Z,2.09
2022-12-13T20:18:48.709Z,2.15
2022-12-13T20:21:15.761Z,2.18
2022-12-13T20:23:49.077Z,2.19
2022-12-13T20:26:18.296Z,2.19
2022-12-13T20:28:44.715Z,2.15
2022-12-13T20:31:14.348Z,2.13
2022-12-13T20:33:42.407Z,2.10
2022-12-13T20:36:24.326Z,2.07
2022-12-13T20:38:52.973Z,2.05
2022-12-13T20:41:19.403Z,2.07
2022-12-13T20:43:48.608Z,2.13
2022-12-13T20:46:15.489Z,2.12
2022-12-13T20:48:44.532Z,2.01
2022-12-13T20:51:14.538Z,1.94
2022-12-13T20:53:42.810Z,2.05
2022-12-13T20:56:13.838Z,2.12
2022-12-13T20:58:41.853Z,2.15
2022-12-13T21:01:15.864Z,2.13
2022-12-13T21:03:42.560Z,1.92
2022-12-13T21:06:09.053Z,1.83
2022-12-13T21:08:54.675Z,1.79
2022-12-13T21:11:25.070Z,1.75
2022-12-13T21:14:16.755Z,1.92
2022-12-13T21:16:55.501Z,2.04
2022-12-13T21:19:27.719Z,2.09
2022-12-13T21:21:55.604Z,2.07
2022-12-13T21:24:23.992Z,1.95
2022-12-13T21:26:51.316Z,1.90
2022-12-13T21:29:18.291Z,1.95
2022-12-13T21:31:49.019Z,1.95
2022-12-13T21:34:16.948Z,1.96
2022-12-13T21:36:45.315Z,1.94
2022-12-13T21:39:14.535Z,1.92
2022-12-13T21:41:42.074Z,1.98
2022-12-13T21:44:13.539Z,2.03
2022-12-13T21:47:22.272Z,2.01
2022-12-13T21:49:26.750Z,2.00
2022-12-13T21:51:53.148Z,2.01
2022-12-13T21:58:18.961Z,2.02
2022-12-13T22:00:46.077Z,1.92
2022-12-13T22:03:12.472Z,1.88
2022-12-13T22:05:38.864Z,1.88
2022-12-13T22:08:05.342Z,2.00
2022-12-13T22:10:31.798Z,2.10
2022-12-13T22:12:58.278Z,2.08
2022-12-13T22:15:25.083Z,2.10
2022-12-13T22:17:51.619Z,2.20
2022-12-13T22:20:18.138Z,2.22
2022-12-13T22:22:45.280Z,2.12
2022-12-13T22:25:11.743Z,2.05
2022-12-13T22:27:38.161Z,2.02
2022-12-13T22:30:05.210Z,2.05
2022-12-13T22:32:32.578Z,2.05
2022-12-13T22:34:59.587Z,2.06
2022-12-13T22:37:26.252Z,2.09
2022-12-13T22:39:52.728Z,2.15
2022-12-13T22:42:20.213Z,2.21
2022-12-13T22:44:46.703Z,2.18
2022-12-13T22:47:13.138Z,2.11
2022-12-13T22:49:39.974Z,2.06
2022-12-13T22:52:06.436Z,2.15
2022-12-13T22:54:32.819Z,2.20
2022-12-13T22:56:59.228Z,2.27
2022-12-13T22:59:25.753Z,2.27
2022-12-13T23:01:55.416Z,2.29
2022-12-13T23:04:26.303Z,2.27
2022-12-13T23:06:52.714Z,2.29
2022-12-13T23:09:19.150Z,2.33
2022-12-13T23:12:04.007Z,2.32
2022-12-13T23:14:33.057Z,2.36
2022-12-13T23:17:01.288Z,2.39
2022-12-13T23:19:51.015Z,2.36
2022-12-13T23:22:14.686Z,2.38
2022-12-13T23:24:41.102Z,2.32
2022-12-13T23:27:07.562Z,2.32
2022-12-13T23:29:34.073Z,2.28
2022-12-13T23:32:00.454Z,2.25
2022-12-13T23:34:27.446Z,2.29
2022-12-13T23:36:54.081Z,2.29
2022-12-13T23:39:20.527Z,2.28
2022-12-13T23:41:46.947Z,2.30
2022-12-13T23:44:13.403Z,2.30
2022-12-13T23:46:39.819Z,2.36
2022-12-13T23:49:06.640Z,2.39
2022-12-13T23:51:34.666Z,2.37
2022-12-13T23:54:01.497Z,2.37
2022-12-13T23:56:29.228Z,2.36
2022-12-13T23:58:55.781Z,2.35
